Time;durP1;ratioP1;P1;durP2;ratioP2;P2;SDS_P1;SDS_P2;PMS_P1;PMS_P2;Temp;Humidity;BMP_temperature;BMP_pressure;BME280_temperature;BME280_humidity;BME280_pressure;Samples;Min_cycle;Max_cycle;Signal;HPM_P1;HPM_P2
2024/04/09 00:00:13;;;;;;;2.75;1.30;;;;;;;22.85;46.44;99365.38;4871574;26;20003;-47
2024/04/09 00:02:24;;;;;;;3.47;1.15;;;;;;;22.84;46.19;99352.22;4863361;26;20627;-47
2024/04/09 00:04:35;;;;;;;2.30;1.30;;;;;;;22.84;46.63;99335.78;4864805;26;20007;-46
2024/04/09 00:06:45;;;;;;;2.75;1.30;;;;;;;22.84;45.91;99340.72;4863750;26;20016;-47
2024/04/09 00:08:56;;;;;;;1.80;1.17;;;;;;;22.84;46.46;99360.84;4866505;26;20011;-48
2024/04/09 00:11:25;;;;;;;4.35;1.40;;;;;;;22.83;46.30;99373.59;4868088;26;20022;-47
2024/04/09 00:13:36;;;;;;;3.15;1.48;;;;;;;22.81;46.65;99371.13;4867050;26;20052;-47
2024/04/09 00:15:46;;;;;;;1.85;1.30;;;;;;;22.82;46.37;99372.75;4866459;26;19999;-46
2024/04/09 00:18:11;;;;;;;2.53;1.23;;;;;;;22.83;45.89;99367.84;4883367;26;20441;-50
2024/04/09 00:20:23;;;;;;;2.25;1.25;;;;;;;22.84;45.87;99363.72;4863966;26;20014;-47
2024/04/09 00:22:34;;;;;;;2.88;1.17;;;;;;;22.82;45.50;99354.66;4865569;26;20088;-47
2024/04/09 00:24:44;;;;;;;3.45;1.40;;;;;;;22.82;45.58;99361.25;4865934;26;20012;-47
2024/04/09 00:26:55;;;;;;;2.72;1.15;;;;;;;22.82;45.66;99351.78;4866479;26;20089;-46
2024/04/09 00:29:05;;;;;;;4.28;1.40;;;;;;;22.83;45.20;99353.47;4863817;26;20027;-47
2024/04/09 00:31:16;;;;;;;4.07;1.45;;;;;;;22.81;44.97;99353.88;4867610;26;20015;-47
2024/04/09 00:33:27;;;;;;;3.47;1.30;;;;;;;22.82;45.07;99371.94;4865361;26;20019;-47
2024/04/09 00:35:37;;;;;;;1.85;1.25;;;;;;;22.82;45.51;99369.06;4865599;26;20027;-48
2024/04/09 00:37:51;;;;;;;2.17;1.10;;;;;;;22.80;45.42;99372.34;4866517;26;20372;-47
2024/04/09 00:40:02;;;;;;;2.00;1.27;;;;;;;22.81;45.50;99371.13;4865671;26;20062;-47
2024/04/09 00:42:13;;;;;;;1.40;1.00;;;;;;;22.82;45.53;99366.19;4866397;26;20080;-47
2024/04/09 00:44:24;;;;;;;2.25;1.23;;;;;;;22.81;45.56;99355.91;4865448;26;20086;-47
2024/04/09 00:46:35;;;;;;;2.55;1.20;;;;;;;22.81;45.66;99356.75;4864375;26;20000;-48
2024/04/09 00:48:46;;;;;;;2.58;1.45;;;;;;;22.82;45.55;99354.66;4864485;26;20046;-47
2024/04/09 00:50:57;;;;;;;1.92;1.20;;;;;;;22.81;45.24;99344.41;4864708;26;21004;-47
2024/04/09 00:53:11;;;;;;;3.25;1.20;;;;;;;22.81;45.20;99364.53;4864924;26;20023;-47
2024/04/09 00:55:25;;;;;;;3.70;1.65;;;;;;;22.80;45.16;99374.44;4866707;26;21013;-46
2024/04/09 00:57:39;;;;;;;3.03;1.40;;;;;;;22.80;44.93;99377.31;4864617;26;20011;-46
2024/04/09 00:59:52;;;;;;;3.47;1.35;;;;;;;22.79;44.37;99385.09;4881246;26;20018;-46
2024/04/09 01:02:04;;;;;;;3.13;1.25;;;;;;;22.79;44.70;99382.22;4864394;26;20625;-46
2024/04/09 01:04:15;;;;;;;2.15;1.27;;;;;;;22.79;43.90;99385.09;4863395;26;20028;-46
2024/04/09 01:06:25;;;;;;;2.63;1.30;;;;;;;22.79;43.29;99379.34;4863504;26;20470;-47
2024/04/09 01:08:35;;;;;;;3.58;1.33;;;;;;;22.80;43.05;99362.91;4868399;26;20478;-48
2024/04/09 01:10:46;;;;;;;3.08;1.10;;;;;;;22.78;42.89;99348.94;4871559;26;25833;-47
2024/04/09 01:13:00;;;;;;;2.33;1.20;;;;;;;22.79;42.36;99344.00;4866861;26;20004;-47
2024/04/09 01:15:10;;;;;;;2.78;1.15;;;;;;;22.79;41.71;99332.47;4868380;26;20045;-47
2024/04/09 01:17:21;;;;;;;3.38;1.13;;;;;;;22.78;40.81;99323.06;4868172;26;20011;-46
2024/04/09 01:19:31;;;;;;;3.88;1.20;;;;;;;22.78;39.62;99316.47;4870835;26;20081;-46
2024/04/09 01:21:42;;;;;;;4.65;1.05;;;;;;;22.78;39.03;99316.47;4865035;26;20027;-47
2024/04/09 01:23:53;;;;;;;3.88;1.20;;;;;;;22.77;38.23;99335.78;4865835;26;20014;-47
2024/04/09 01:26:03;;;;;;;3.10;1.30;;;;;;;22.77;38.04;99334.97;4869880;26;20451;-47
2024/04/09 01:28:13;;;;;;;3.47;1.50;;;;;;;22.76;37.92;99318.94;4867523;26;20045;-47
2024/04/09 01:30:24;;;;;;;4.10;1.20;;;;;;;22.76;37.24;99327.56;4871708;26;21366;-47
2024/04/09 01:32:36;;;;;;;5.82;1.67;;;;;;;22.75;37.26;99321.00;4869085;26;20082;-46
2024/04/09 01:34:47;;;;;;;2.80;1.25;;;;;;;22.75;37.25;99325.94;4867867;26;20021;-48
2024/04/09 01:37:00;;;;;;;5.32;1.30;;;;;;;22.75;37.24;99331.69;4867027;26;20007;-46
2024/04/09 01:39:10;;;;;;;5.13;1.45;;;;;;;22.74;37.50;99332.94;4867225;26;20023;-46
2024/04/09 01:41:21;;;;;;;5.28;1.60;;;;;;;22.75;37.28;99346.06;4873241;26;20018;-46
2024/04/09 01:43:31;;;;;;;4.97;1.48;;;;;;;22.75;37.20;99343.19;4865355;26;20008;-47
2024/04/09 01:45:41;;;;;;;3.97;1.10;;;;;;;22.73;37.49;99340.72;4868036;26;20019;-47
2024/04/09 01:47:52;;;;;;;5.30;1.58;;;;;;;22.75;38.03;99337.44;4868362;26;20009;-46
2024/04/09 01:50:05;;;;;;;4.80;1.58;;;;;;;22.73;38.18;99348.53;4870703;26;20003;-47
2024/04/09 01:52:15;;;;;;;5.05;1.30;;;;;;;22.74;38.51;99335.81;4866973;26;20815;-47
2024/04/09 01:54:26;;;;;;;3.60;1.30;;;;;;;22.74;38.71;99335.81;4866804;26;20102;-46
2024/04/09 01:56:36;;;;;;;4.78;1.50;;;;;;;22.74;38.81;99335.81;4866590;26;20008;-47
2024/04/09 01:58:47;;;;;;;6.05;1.52;;;;;;;22.73;38.90;99334.97;4866153;26;20022;-48
2024/04/09 02:00:57;;;;;;;3.70;1.50;;;;;;;22.73;38.83;99334.13;4867569;26;21308;-48
2024/04/09 02:03:08;;;;;;;4.60;1.75;;;;;;;22.73;39.23;99331.25;4869171;26;20023;-48
2024/04/09 02:05:19;;;;;;;3.28;1.30;;;;;;;22.73;39.00;99328.38;4867400;26;23668;-47
2024/04/09 02:07:30;;;;;;;4.05;1.48;;;;;;;22.73;38.96;99316.88;4866008;26;20040;-48
2024/04/09 02:09:40;;;;;;;5.38;1.63;;;;;;;22.72;39.31;99301.66;4866524;26;23269;-46
2024/04/09 02:11:51;;;;;;;5.55;1.40;;;;;;;22.72;39.44;99295.13;4867243;26;20066;-50
2024/04/09 02:14:03;;;;;;;6.60;1.52;;;;;;;22.71;39.59;99297.16;4865878;26;27407;-46
2024/04/09 02:16:16;;;;;;;5.07;1.60;;;;;;;22.72;39.69;99293.03;4867006;26;20018;-47
2024/04/09 02:18:26;;;;;;;6.22;1.60;;;;;;;22.72;39.67;99306.63;4868520;26;20008;-47
2024/04/09 02:20:38;;;;;;;6.43;1.85;;;;;;;22.71;39.79;99291.41;4867762;26;20008;-47
2024/04/09 02:22:49;;;;;;;6.00;1.60;;;;;;;22.72;39.80;99284.41;4867528;26;20003;-46
2024/04/09 02:24:59;;;;;;;5.03;1.67;;;;;;;22.71;39.92;99277.03;4868224;26;20059;-47
2024/04/09 02:27:11;;;;;;;3.50;1.20;;;;;;;22.72;39.62;99270.03;4870161;26;20007;-47
2024/04/09 02:29:22;;;;;;;3.70;1.10;;;;;;;22.72;39.70;99269.22;4869275;26;20879;-47
2024/04/09 02:31:32;;;;;;;4.93;1.85;;;;;;;22.70;39.73;99261.00;4865624;26;20014;-46
2024/04/09 02:33:43;;;;;;;4.82;1.70;;;;;;;22.70;39.89;99251.56;4867148;26;21388;-48
2024/04/09 02:36:01;;;;;;;5.25;2.15;;;;;;;22.71;39.39;99254.00;4869417;26;20004;-47
2024/04/09 02:38:12;;;;;;;5.13;1.67;;;;;;;22.71;39.39;99250.31;4867432;26;20096;-47
2024/04/09 02:40:22;;;;;;;5.40;1.60;;;;;;;22.71;38.91;99244.56;4866824;26;27515;-48
2024/04/09 02:42:33;;;;;;;6.13;2.15;;;;;;;22.71;39.23;99244.56;4866884;26;20011;-47
2024/04/09 02:44:44;;;;;;;4.28;1.58;;;;;;;22.71;38.98;99250.31;4873304;26;20477;-48
2024/04/09 02:46:55;;;;;;;4.50;1.42;;;;;;;22.70;38.77;99248.69;4869613;26;20462;-48
2024/04/09 02:49:06;;;;;;;5.38;1.48;;;;;;;22.70;38.83;99249.50;4867107;26;20022;-47
2024/04/09 02:51:16;;;;;;;3.67;1.30;;;;;;;22.70;38.96;99249.50;4869704;26;20130;-48
2024/04/09 02:53:27;;;;;;;4.70;1.50;;;;;;;22.70;38.72;99249.50;4866067;26;20360;-46
2024/04/09 02:55:37;;;;;;;4.07;1.42;;;;;;;22.71;38.52;99256.88;4868477;26;20014;-48
2024/04/09 02:57:48;;;;;;;5.03;1.60;;;;;;;22.70;38.66;99249.50;4865805;26;23076;-47
2024/04/09 02:59:58;;;;;;;4.93;1.55;;;;;;;22.71;38.47;99261.81;4864597;26;20487;-46
2024/04/09 03:02:09;;;;;;;5.00;1.60;;;;;;;22.69;38.84;99259.34;4866421;26;20007;-47
2024/04/09 03:04:19;;;;;;;6.90;1.60;;;;;;;22.71;38.30;99350.97;4866285;26;20008;-47
2024/04/09 03:06:30;;;;;;;3.95;1.50;;;;;;;22.69;38.31;99328.38;4866629;26;20006;-47
2024/04/09 03:08:41;;;;;;;7.95;1.80;;;;;;;22.69;38.42;99344.84;4869151;26;20072;-47
2024/04/09 03:10:52;;;;;;;6.00;1.65;;;;;;;22.68;37.83;99361.28;4868941;26;20015;-47
2024/04/09 03:13:03;;;;;;;7.68;1.58;;;;;;;22.70;37.58;99363.72;4868265;26;20048;-48
2024/04/09 03:15:13;;;;;;;5.43;2.00;;;;;;;22.70;37.59;99357.97;4866142;26;20487;-48
2024/04/09 03:17:23;;;;;;;5.55;1.55;;;;;;;22.70;37.90;99366.59;4868643;26;20051;-47
2024/04/09 03:19:34;;;;;;;4.32;1.40;;;;;;;22.69;37.54;99353.47;4866895;26;22639;-46
2024/04/09 03:21:44;;;;;;;3.78;1.38;;;;;;;22.69;38.22;99364.97;4866374;26;20014;-46
2024/04/09 03:23:55;;;;;;;4.72;1.70;;;;;;;22.69;38.40;99385.91;4866293;26;20000;-46
2024/04/09 03:26:06;;;;;;;3.78;2.15;;;;;;;22.69;38.60;99388.00;4866410;26;20007;-48
2024/04/09 03:28:17;;;;;;;3.17;1.50;;;;;;;22.69;38.85;99394.53;4865835;26;21472;-48
2024/04/09 03:30:27;;;;;;;5.72;1.67;;;;;;;22.67;39.21;99404.81;4867379;26;20036;-47
2024/04/09 03:32:38;;;;;;;4.93;1.30;;;;;;;22.69;39.48;99408.94;4864104;26;20084;-47
2024/04/09 03:34:48;;;;;;;4.15;1.40;;;;;;;22.68;39.90;99420.84;4866662;26;20012;-46
2024/04/09 03:37:00;;;;;;;3.30;1.52;;;;;;;22.67;40.19;99414.28;4865554;26;20015;-46
2024/04/09 03:39:10;;;;;;;4.22;1.50;;;;;;;22.68;40.16;99429.47;4867237;26;20015;-46
2024/04/09 03:41:20;;;;;;;5.43;1.38;;;;;;;22.70;40.62;99427.00;4866146;26;20014;-46
2024/04/09 03:43:31;;;;;;;4.60;1.40;;;;;;;22.68;40.70;99441.81;4868664;26;23321;-46
2024/04/09 03:45:41;;;;;;;7.22;1.98;;;;;;;22.68;40.93;99440.97;4867014;26;20044;-49
2024/04/09 03:47:52;;;;;;;2.97;1.08;;;;;;;22.69;41.16;99445.53;4866087;26;20008;-46
2024/04/09 03:50:02;;;;;;;4.07;1.30;;;;;;;22.69;41.48;99442.63;4864397;26;20004;-46
2024/04/09 03:52:12;;;;;;;3.70;1.60;;;;;;;22.68;41.66;99447.56;4864729;26;21290;-51
2024/04/09 03:54:23;;;;;;;3.78;1.35;;;;;;;22.68;41.89;99450.44;4866014;26;28695;-51
2024/04/09 03:56:33;;;;;;;3.95;1.38;;;;;;;22.70;42.00;99455.78;4864251;26;20007;-51
2024/04/09 03:58:45;;;;;;;4.38;1.63;;;;;;;22.68;42.13;99459.06;4871671;26;21582;-51
2024/04/09 04:00:57;;;;;;;4.65;1.88;;;;;;;22.68;42.52;99476.31;4865160;26;20534;-50
2024/04/09 04:03:08;;;;;;;3.80;1.40;;;;;;;22.68;42.64;99484.13;4868889;26;20073;-50
2024/04/09 04:05:18;;;;;;;4.25;1.52;;;;;;;22.69;42.55;99505.91;4869968;26;20014;-51
2024/04/09 04:07:28;;;;;;;3.30;1.23;;;;;;;22.68;42.92;99510.84;4866437;26;20239;-51
2024/04/09 04:09:39;;;;;;;3.10;1.48;;;;;;;22.67;42.83;99531.38;4862029;26;20004;-50
2024/04/09 04:11:53;;;;;;;3.05;1.40;;;;;;;22.68;43.14;99545.34;4863824;26;20004;-47
2024/04/09 04:14:03;;;;;;;6.40;1.60;;;;;;;22.65;43.23;99546.19;4868432;26;20014;-46
2024/04/09 04:16:15;;;;;;;4.35;1.70;;;;;;;22.67;43.49;99555.22;4864936;26;28650;-47
2024/04/09 04:18:25;;;;;;;4.03;1.40;;;;;;;22.69;43.84;99560.56;4866343;26;20509;-47
2024/04/09 04:20:36;;;;;;;5.18;1.40;;;;;;;22.68;44.06;99556.88;4869378;26;20040;-48
2024/04/09 04:22:46;;;;;;;3.75;1.70;;;;;;;22.69;44.04;99557.69;4864439;26;28654;-47
2024/04/09 04:24:57;;;;;;;3.15;1.40;;;;;;;22.69;44.17;99551.94;4866702;26;20003;-46
2024/04/09 04:27:07;;;;;;;3.90;1.50;;;;;;;22.67;44.30;99549.47;4864869;26;20112;-48
2024/04/09 04:29:17;;;;;;;5.32;1.52;;;;;;;22.69;44.26;99546.19;4865292;26;20055;-51
2024/04/09 04:31:29;;;;;;;4.97;1.45;;;;;;;22.69;44.49;99546.19;4866311;26;20032;-47
2024/04/09 04:33:40;;;;;;;4.45;1.85;;;;;;;22.69;44.65;99557.69;4863978;26;20021;-48
2024/04/09 04:35:52;;;;;;;2.90;1.50;;;;;;;22.68;44.79;99553.16;4865141;26;20051;-48
2024/04/09 04:38:03;;;;;;;3.72;1.40;;;;;;;22.68;44.77;99550.28;4863738;26;21084;-51
2024/04/09 04:40:15;;;;;;;4.13;1.50;;;;;;;22.69;44.66;99551.94;4866349;26;20015;-48
2024/04/09 04:42:25;;;;;;;3.63;1.63;;;;;;;22.68;44.91;99548.25;4865407;26;20003;-51
2024/04/09 04:44:36;;;;;;;3.03;1.52;;;;;;;22.68;44.97;99550.28;4866812;26;20007;-51
2024/04/09 04:46:47;;;;;;;3.05;1.50;;;;;;;22.68;45.17;99533.03;4866279;26;20014;-47
2024/04/09 04:48:57;;;;;;;4.47;1.30;;;;;;;22.68;44.90;99521.53;4867865;26;20007;-50
2024/04/09 04:51:09;;;;;;;5.55;1.90;;;;;;;22.67;44.82;99522.75;4868619;26;20004;-49
2024/04/09 04:53:20;;;;;;;3.78;1.55;;;;;;;22.67;45.14;99522.75;4868531;26;20015;-47
2024/04/09 04:55:32;;;;;;;2.80;1.50;;;;;;;22.69;45.23;99531.81;4865227;26;20000;-47
2024/04/09 04:57:42;;;;;;;3.92;1.45;;;;;;;22.68;45.20;99556.88;4866857;26;20595;-48
2024/04/09 04:59:52;;;;;;;6.57;1.50;;;;;;;22.67;45.17;99571.66;4869066;26;20012;-47
2024/04/09 05:02:03;;;;;;;4.57;1.60;;;;;;;22.66;45.21;99610.28;4866099;26;20003;-48
2024/04/09 05:04:13;;;;;;;4.45;2.00;;;;;;;22.67;45.22;99623.44;4866367;26;20008;-51
2024/04/09 05:06:23;;;;;;;5.25;1.70;;;;;;;22.67;45.01;99629.19;4867037;26;20004;-50
2024/04/09 05:08:34;;;;;;;5.45;1.70;;;;;;;22.68;44.84;99627.94;4884319;26;20011;-46
2024/04/09 05:10:44;;;;;;;5.78;1.88;;;;;;;22.67;45.02;99624.28;4873834;26;20602;-47
2024/04/09 05:12:55;;;;;;;3.78;1.73;;;;;;;22.65;44.86;99623.84;4871520;26;19999;-51
2024/04/09 05:15:09;;;;;;;4.28;1.60;;;;;;;22.67;45.03;99623.44;4869872;26;20069;-48
2024/04/09 05:17:19;;;;;;;6.15;1.60;;;;;;;22.67;44.99;99629.19;4867584;26;20018;-50
2024/04/09 05:19:33;;;;;;;4.00;1.55;;;;;;;22.66;45.39;99628.34;4871403;26;20019;-48
2024/04/09 05:21:43;;;;;;;4.45;1.77;;;;;;;22.67;45.14;99614.81;4869863;26;20113;-47
2024/04/09 05:23:54;;;;;;;4.72;1.50;;;;;;;22.67;45.14;99611.94;4868492;26;20003;-48
2024/04/09 05:26:04;;;;;;;5.35;1.75;;;;;;;22.67;45.17;99601.25;4866853;26;20344;-48
2024/04/09 05:28:14;;;;;;;4.72;1.52;;;;;;;22.67;45.34;99603.28;4867138;26;20014;-47
2024/04/09 05:30:25;;;;;;;3.75;1.55;;;;;;;22.67;45.38;99612.75;4867388;26;20076;-47
2024/04/09 05:32:39;;;;;;;3.50;1.50;;;;;;;22.67;45.41;99606.19;4869249;26;20075;-51
2024/04/09 05:34:49;;;;;;;3.33;1.50;;;;;;;22.65;45.63;99609.47;4867227;26;20065;-47
2024/04/09 05:37:00;;;;;;;4.05;1.60;;;;;;;22.66;45.95;99610.28;4866245;26;20208;-48
2024/04/09 05:39:10;;;;;;;4.18;1.83;;;;;;;22.66;46.16;99608.22;4866635;26;20003;-49
2024/04/09 05:41:21;;;;;;;3.60;1.58;;;;;;;22.66;45.78;99598.78;4866810;26;20033;-49
2024/04/09 05:43:31;;;;;;;4.85;1.65;;;;;;;22.65;45.98;99602.88;4867864;26;21283;-47
2024/04/09 05:45:42;;;;;;;3.72;1.42;;;;;;;22.66;45.78;99610.28;4867883;26;20007;-48
2024/04/09 05:47:52;;;;;;;3.95;1.50;;;;;;;22.65;45.88;99614.38;4867398;26;20003;-49
2024/04/09 05:50:03;;;;;;;4.68;1.50;;;;;;;22.65;45.61;99615.22;4862111;26;20007;-48
2024/04/09 05:52:14;;;;;;;4.28;1.42;;;;;;;22.66;45.78;99616.03;4866652;26;20000;-47
2024/04/09 05:54:24;;;;;;;5.13;1.50;;;;;;;22.65;45.66;99626.72;4865803;26;20003;-47
2024/04/09 05:56:34;;;;;;;4.97;1.70;;;;;;;22.65;45.85;99629.59;4865153;26;19996;-48
2024/04/09 05:58:45;;;;;;;5.00;2.15;;;;;;;22.65;45.70;99635.34;4866533;26;20000;-47
2024/04/09 06:00:56;;;;;;;3.83;1.50;;;;;;;22.66;45.89;99641.94;4864957;26;20064;-51
2024/04/09 06:03:06;;;;;;;4.75;1.85;;;;;;;22.65;45.81;99663.28;4867408;26;20339;-49
2024/04/09 06:05:17;;;;;;;5.25;2.10;;;;;;;22.65;45.85;99669.03;4870148;26;20372;-48
2024/04/09 06:07:30;;;;;;;4.22;1.38;;;;;;;22.63;46.06;99669.44;4881604;26;20351;-49
2024/04/09 06:09:41;;;;;;;3.70;1.30;;;;;;;22.64;46.07;99676.03;4870105;26;21027;-47
2024/04/09 06:11:51;;;;;;;4.43;1.40;;;;;;;22.65;46.03;99666.16;4865202;26;20000;-47
2024/04/09 06:14:02;;;;;;;4.15;1.45;;;;;;;22.65;46.11;99663.28;4865877;26;21826;-48
2024/04/09 06:16:12;;;;;;;5.75;1.63;;;;;;;22.64;46.21;99642.34;4866258;26;20004;-48
2024/04/09 06:18:23;;;;;;;4.30;1.80;;;;;;;22.65;46.11;99623.00;4866742;26;20014;-48
2024/04/09 06:20:34;;;;;;;4.03;1.70;;;;;;;22.64;46.20;99625.09;4869562;26;20008;-47
2024/04/09 06:22:44;;;;;;;3.00;1.38;;;;;;;22.65;46.43;99631.63;4866266;26;20004;-47
2024/04/09 06:24:54;;;;;;;3.22;1.30;;;;;;;22.64;46.41;99648.09;4870615;26;20010;-49
2024/04/09 06:27:06;;;;;;;4.07;1.40;;;;;;;22.64;46.34;99662.47;4865450;26;20000;-47
2024/04/09 06:29:17;;;;;;;5.20;1.50;;;;;;;22.63;46.35;99660.81;4866153;26;20107;-50
2024/04/09 06:31:27;;;;;;;4.85;1.40;;;;;;;22.64;46.49;99668.22;4866295;26;20061;-49
2024/04/09 06:33:39;;;;;;;2.92;1.40;;;;;;;22.65;46.11;99660.41;4863860;26;20012;-47
2024/04/09 06:35:49;;;;;;;4.03;1.40;;;;;;;22.66;46.21;99670.69;4867007;26;20003;-48
2024/04/09 06:38:00;;;;;;;2.45;1.27;;;;;;;22.63;46.03;99663.69;4868728;26;20010;-48
2024/04/09 06:40:10;;;;;;;3.20;1.20;;;;;;;22.65;46.18;99671.91;4867753;26;20012;-48
2024/04/09 06:42:21;;;;;;;2.20;1.05;;;;;;;22.64;45.77;99653.84;4865381;26;20014;-47
2024/04/09 06:44:31;;;;;;;2.10;0.95;;;;;;;22.64;45.54;99676.84;4873898;26;20364;-48
2024/04/09 06:46:42;;;;;;;2.60;0.90;;;;;;;22.63;45.47;99691.63;4867482;26;19999;-48
2024/04/09 06:48:53;;;;;;;1.58;0.90;;;;;;;22.63;45.49;99691.63;4871835;26;19999;-48
2024/04/09 06:51:04;;;;;;;2.08;0.85;;;;;;;22.63;45.43;99688.75;4865746;26;20865;-49
2024/04/09 06:53:14;;;;;;;1.73;0.90;;;;;;;22.64;45.58;99687.53;4868439;26;20035;-49
2024/04/09 06:55:24;;;;;;;2.60;0.80;;;;;;;22.63;45.55;99697.41;4868354;26;20014;-47
2024/04/09 06:57:36;;;;;;;1.88;0.82;;;;;;;22.62;45.77;99708.06;4869528;26;19995;-51
2024/04/09 06:59:46;;;;;;;1.95;0.90;;;;;;;22.63;45.88;99708.91;4866236;26;20044;-50
2024/04/09 07:01:56;;;;;;;3.17;1.00;;;;;;;22.62;45.52;99702.31;4865983;26;20011;-48
2024/04/09 07:04:07;;;;;;;2.83;0.80;;;;;;;22.62;45.38;99701.47;4867888;26;20008;-50
2024/04/09 07:06:17;;;;;;;1.88;0.70;;;;;;;22.61;45.70;99706.41;4870302;26;20006;-47
2024/04/09 07:08:27;;;;;;;2.25;0.85;;;;;;;22.61;46.05;99705.59;4866740;26;20004;-47
2024/04/09 07:10:38;;;;;;;1.48;0.80;;;;;;;22.58;45.84;99695.69;4866356;26;20004;-49
2024/04/09 07:12:50;;;;;;;2.42;0.85;;;;;;;22.59;45.71;99674.34;4867483;26;20007;-49
2024/04/09 07:15:16;;;;;;;3.15;0.80;;;;;;;22.58;45.63;99655.44;4866079;26;20032;-47
2024/04/09 07:17:26;;;;;;;1.88;0.90;;;;;;;22.58;45.37;99689.94;4871556;26;20103;-48
2024/04/09 07:19:36;;;;;;;1.55;0.50;;;;;;;22.58;45.08;99694.91;4870125;26;26268;-49
2024/04/09 07:21:48;;;;;;;2.08;0.70;;;;;;;22.59;45.01;99710.91;4869901;26;20008;-48
2024/04/09 07:23:59;;;;;;;3.08;0.63;;;;;;;22.59;45.32;99717.50;4865321;26;20004;-47
2024/04/09 07:26:09;;;;;;;1.60;0.70;;;;;;;22.59;44.96;99725.28;4869310;26;20077;-47
2024/04/09 07:28:19;;;;;;;0.98;0.55;;;;;;;22.59;44.71;99722.41;4840583;26;20012;-48
2024/04/09 07:30:30;;;;;;;1.95;0.65;;;;;;;22.59;44.66;99728.16;4866024;26;20003;-48
2024/04/09 07:32:40;;;;;;;1.65;0.90;;;;;;;22.59;44.89;99716.66;4868961;26;20004;-47
2024/04/09 07:34:51;;;;;;;0.70;0.50;;;;;;;22.59;44.67;99733.94;4870225;26;20015;-48
2024/04/09 07:37:13;;;;;;;0.55;0.50;;;;;;;22.58;44.97;99735.16;4867595;26;20011;-49
2024/04/09 07:39:24;;;;;;;1.02;0.60;;;;;;;22.58;44.65;99744.59;4873481;26;20072;-49
2024/04/09 07:41:34;;;;;;;1.65;0.50;;;;;;;22.58;44.44;99758.16;4866018;26;20072;-48
2024/04/09 07:43:44;;;;;;;0.93;0.55;;;;;;;22.58;44.89;99763.91;4869341;26;20004;-49
2024/04/09 07:45:55;;;;;;;1.83;0.50;;;;;;;22.57;44.78;99771.72;4867701;26;20022;-47
2024/04/09 07:48:05;;;;;;;0.93;0.60;;;;;;;22.58;44.64;99769.69;4865264;26;20377;-48
2024/04/09 07:50:16;;;;;;;1.38;0.50;;;;;;;22.58;44.78;99766.81;4865901;26;21289;-49
2024/04/09 07:52:26;;;;;;;1.00;0.52;;;;;;;22.59;44.99;99754.06;4866442;26;21259;-49
2024/04/09 07:54:36;;;;;;;2.75;0.70;;;;;;;22.58;45.01;99747.47;4867502;26;20411;-47
2024/04/09 07:56:48;;;;;;;0.57;0.40;;;;;;;22.57;45.12;99753.63;4864637;26;20451;-49
2024/04/09 07:58:58;;;;;;;1.17;0.60;;;;;;;22.58;45.16;99769.69;4866303;26;20018;-51
2024/04/09 08:01:08;;;;;;;1.00;0.40;;;;;;;22.58;44.81;99775.44;4865417;26;20041;-47
2024/04/09 08:03:19;;;;;;;0.65;0.52;;;;;;;22.57;45.29;99768.00;4864058;26;20051;-49
2024/04/09 08:05:29;;;;;;;1.85;0.52;;;;;;;22.55;45.35;99761.84;4863336;26;20415;-48
2024/04/09 08:07:40;;;;;;;1.48;0.50;;;;;;;22.55;45.57;99765.53;4864403;26;20007;-49
2024/04/09 08:09:50;;;;;;;1.02;0.50;;;;;;;22.58;45.99;99801.31;4841665;26;20093;-47
2024/04/09 08:12:01;;;;;;;0.40;0.40;;;;;;;22.59;45.56;99795.16;4865377;26;20006;-47
2024/04/09 08:14:11;;;;;;;1.05;0.52;;;;;;;22.60;45.58;99790.22;4870223;26;23308;-47
2024/04/09 08:16:22;;;;;;;1.08;0.50;;;;;;;22.61;45.74;99797.63;4870713;26;20010;-52
2024/04/09 08:18:32;;;;;;;0.70;0.50;;;;;;;22.59;45.50;99797.19;4867840;26;20077;-49
2024/04/09 08:20:44;;;;;;;0.77;0.43;;;;;;;22.62;45.59;99799.28;4866630;26;20003;-50
2024/04/09 08:22:54;;;;;;;1.13;0.55;;;;;;;22.62;45.42;99805.03;4888310;26;20014;-47
2024/04/09 08:25:07;;;;;;;0.80;0.50;;;;;;;22.63;45.75;99810.38;4867344;26;20040;-47
2024/04/09 08:27:18;;;;;;;1.23;0.70;;;;;;;22.63;45.55;99806.69;4884155;26;20038;-48
2024/04/09 08:29:31;;;;;;;0.60;0.40;;;;;;;22.63;45.73;99790.25;4869782;26;20435;-47
2024/04/09 08:31:44;;;;;;;0.43;0.40;;;;;;;22.63;45.27;99775.06;4867470;26;20011;-47
2024/04/09 08:33:55;;;;;;;1.45;0.50;;;;;;;22.64;45.10;99785.31;4866734;26;20007;-48
2024/04/09 08:36:06;;;;;;;0.52;0.40;;;;;;;22.63;45.21;99793.13;4871145;26;20502;-47
2024/04/09 08:38:17;;;;;;;0.90;0.40;;;;;;;22.65;45.04;99781.22;4868014;26;20411;-47
2024/04/09 08:40:27;;;;;;;1.45;0.57;;;;;;;22.65;45.10;99775.47;4868389;26;20022;-48
2024/04/09 08:42:38;;;;;;;0.73;0.40;;;;;;;22.64;45.23;99773.81;4868973;26;20007;-49
2024/04/09 08:44:55;;;;;;;0.60;0.47;;;;;;;22.64;45.32;99791.06;4866915;26;21015;-47
2024/04/09 08:47:08;;;;;;;0.82;0.40;;;;;;;22.63;45.64;99824.75;4867481;26;20007;-48
2024/04/09 08:49:18;;;;;;;0.55;0.40;;;;;;;22.64;45.38;99826.44;4870021;26;20089;-51
2024/04/09 08:51:29;;;;;;;1.55;0.60;;;;;;;22.63;45.22;99818.19;4864258;26;20003;-48
2024/04/09 08:53:40;;;;;;;2.00;0.50;;;;;;;22.64;45.24;99820.69;4872752;26;20008;-50
2024/04/09 08:55:52;;;;;;;0.88;0.50;;;;;;;22.65;45.94;99821.47;4870132;26;20084;-52
2024/04/09 08:58:02;;;;;;;0.50;0.40;;;;;;;22.65;46.32;99838.75;4870002;26;20015;-49
2024/04/09 09:00:16;;;;;;;0.30;0.30;;;;;;;22.64;45.90;99846.56;4867661;26;20015;-47
2024/04/09 09:02:26;;;;;;;0.20;0.20;;;;;;;22.64;45.81;99869.56;4872176;26;20023;-47
2024/04/09 09:04:37;;;;;;;0.10;0.10;;;;;;;22.64;45.58;99878.22;4868841;26;20019;-50
2024/04/09 09:06:47;;;;;;;0.28;0.28;;;;;;;22.65;46.03;99879.00;4870941;26;20062;-47
2024/04/09 09:08:58;;;;;;;0.28;0.20;;;;;;;22.64;45.65;99878.22;4874441;26;20004;-49
2024/04/09 09:11:09;;;;;;;1.45;0.30;;;;;;;22.64;45.71;99878.22;4869932;26;20015;-48
2024/04/09 09:13:20;;;;;;;0.52;0.30;;;;;;;22.64;46.18;99877.38;4885871;26;20007;-48
2024/04/09 09:15:31;;;;;;;0.20;0.20;;;;;;;22.64;45.19;99888.88;4865549;26;20004;-49
2024/04/09 09:17:43;;;;;;;0.20;0.20;;;;;;;22.64;45.49;99906.13;4870379;26;20078;-51
2024/04/09 09:19:57;;;;;;;0.30;0.30;;;;;;;22.64;45.26;99903.25;4868758;26;20007;-49
2024/04/09 09:22:10;;;;;;;0.47;0.20;;;;;;;22.65;44.60;99885.59;4866048;26;26993;-47
2024/04/09 09:24:21;;;;;;;0.20;0.20;;;;;;;22.65;45.25;99891.34;4867434;26;20012;-48
2024/04/09 09:26:31;;;;;;;0.38;0.20;;;;;;;22.65;44.60;99890.53;4866713;26;20007;-48
2024/04/09 09:28:42;;;;;;;2.05;0.52;;;;;;;22.64;45.32;99906.13;4867330;26;20019;-47
2024/04/09 09:30:56;;;;;;;0.50;0.20;;;;;;;22.64;45.65;99914.78;4866840;26;20008;-48
2024/04/09 09:33:20;;;;;;;0.90;0.30;;;;;;;22.64;44.69;99923.41;4867786;26;20798;-48
2024/04/09 09:35:35;;;;;;;0.50;0.50;;;;;;;22.65;43.59;99916.41;4867868;26;21016;-49
2024/04/09 09:37:51;;;;;;;1.27;0.40;;;;;;;22.65;43.92;99922.16;4866983;26;20496;-49
2024/04/09 09:40:07;;;;;;;0.50;0.50;;;;;;;22.65;43.74;99936.53;4868712;26;20097;-48
2024/04/09 09:42:21;;;;;;;0.93;0.60;;;;;;;22.64;43.51;99953.00;4869020;26;20089;-49
2024/04/09 09:44:39;;;;;;;0.40;0.40;;;;;;;22.66;43.60;99972.75;4866037;26;20007;-48
2024/04/09 09:46:51;;;;;;;0.80;0.60;;;;;;;22.66;42.98;99978.50;4865803;26;20023;-48
2024/04/09 09:49:03;;;;;;;1.27;0.50;;;;;;;22.66;42.27;99990.00;4868192;26;20015;-48
2024/04/09 09:51:14;;;;;;;0.60;0.60;;;;;;;22.65;42.04;99991.19;4866416;26;20086;-49
2024/04/09 09:53:24;;;;;;;0.70;0.70;;;;;;;22.66;41.74;99995.75;4874154;26;20018;-52
2024/04/09 09:55:36;;;;;;;0.60;0.60;;;;;;;22.66;41.16;99990.00;4865771;26;20008;-48
2024/04/09 09:57:48;;;;;;;0.50;0.50;;;;;;;22.66;41.66;100001.50;4869294;26;20059;-53
2024/04/09 10:00:15;;;;;;;0.50;0.50;;;;;;;22.66;41.26;100007.25;4849322;26;20022;-52
2024/04/09 10:02:29;;;;;;;0.60;0.60;;;;;;;22.67;40.63;100014.66;4867659;26;20011;-50
2024/04/09 10:04:40;;;;;;;0.60;0.60;;;;;;;22.66;40.88;100013.00;4866383;26;20563;-48
2024/04/09 10:14:13;;;;;;;0.70;0.70;;;;;;;22.70;41.08;100045.50;4867310;26;20012;-49
2024/04/09 10:19:34;;;;;;;0.70;0.55;;;;;;;22.71;41.42;100076.75;4868510;26;20003;-49
2024/04/09 10:22:16;;;;;;;0.50;0.50;;;;;;;22.71;41.38;100070.16;4866780;26;20022;-50
2024/04/09 10:24:27;;;;;;;0.60;0.40;;;;;;;22.73;39.34;100079.25;4868184;26;20761;-48
2024/04/09 10:26:38;;;;;;;0.63;0.50;;;;;;;22.73;39.23;100087.88;4893224;26;20039;-52
2024/04/09 10:28:48;;;;;;;0.40;0.40;;;;;;;22.74;38.55;100084.59;4868964;26;20621;-50